sensor_id;sensor_type;location;lat;lon;timestamp;P1;durP1;ratioP1;P2;durP2;ratioP2
17197;SDS011;8715;51.010;6.812;2022-09-09T00:04:13;542.50;;;521.08;;
17197;SDS011;8715;51.010;6.812;2022-09-09T00:10:07;464.88;;;446.52;;
17197;SDS011;8715;51.010;6.812;2022-09-09T00:15:55;461.95;;;443.10;;
17197;SDS011;8715;51.010;6.812;2022-09-09T00:21:11;478.08;;;459.83;;
17197;SDS011;8715;51.010;6.812;2022-09-09T00:23:39;456.10;;;438.70;;
17197;SDS011;8715;51.010;6.812;2022-09-09T00:28:48;461.13;;;442.98;;
17197;SDS011;8715;51.010;6.812;2022-09-09T00:31:20;475.67;;;457.02;;
17197;SDS011;8715;51.010;6.812;2022-09-09T00:33:48;474.45;;;455.70;;
17197;SDS011;8715;51.010;6.812;2022-09-09T00:36:15;464.38;;;445.83;;
17197;SDS011;8715;51.010;6.812;2022-09-09T00:38:47;457.25;;;438.90;;
17197;SDS011;8715;51.010;6.812;2022-09-09T00:41:18;484.73;;;465.98;;
17197;SDS011;8715;51.010;6.812;2022-09-09T00:52:42;471.33;;;453.10;;
17197;SDS011;8715;51.010;6.812;2022-09-09T00:57:40;524.55;;;504.77;;
17197;SDS011;8715;51.010;6.812;2022-09-09T01:00:26;532.17;;;511.83;;
17197;SDS011;8715;51.010;6.812;2022-09-09T01:10:25;450.90;;;432.88;;
17197;SDS011;8715;51.010;6.812;2022-09-09T01:12:56;477.23;;;458.58;;
17197;SDS011;8715;51.010;6.812;2022-09-09T01:15:25;468.45;;;449.95;;
17197;SDS011;8715;51.010;6.812;2022-09-09T01:20:29;472.35;;;453.77;;
17197;SDS011;8715;51.010;6.812;2022-09-09T01:25:56;471.52;;;453.50;;
17197;SDS011;8715;51.010;6.812;2022-09-09T01:28:35;457.08;;;438.70;;
17197;SDS011;8715;51.010;6.812;2022-09-09T01:31:02;474.25;;;455.48;;
17197;SDS011;8715;51.010;6.812;2022-09-09T01:33:28;475.00;;;455.90;;
17197;SDS011;8715;51.010;6.812;2022-09-09T01:35:55;467.75;;;448.45;;
17197;SDS011;8715;51.010;6.812;2022-09-09T01:38:25;457.98;;;439.30;;
17197;SDS011;8715;51.010;6.812;2022-09-09T01:40:51;480.35;;;461.33;;
17197;SDS011;8715;51.010;6.812;2022-09-09T01:43:17;467.02;;;448.65;;
17197;SDS011;8715;51.010;6.812;2022-09-09T01:45:44;470.35;;;451.75;;
17197;SDS011;8715;51.010;6.812;2022-09-09T01:48:11;458.17;;;439.30;;
17197;SDS011;8715;51.010;6.812;2022-09-09T01:50:37;436.13;;;419.10;;
17197;SDS011;8715;51.010;6.812;2022-09-09T01:53:02;472.88;;;454.52;;
17197;SDS011;8715;51.010;6.812;2022-09-09T01:55:29;445.42;;;427.85;;
17197;SDS011;8715;51.010;6.812;2022-09-09T02:01:31;457.17;;;439.30;;
17197;SDS011;8715;51.010;6.812;2022-09-09T02:03:55;447.48;;;429.60;;
17197;SDS011;8715;51.010;6.812;2022-09-09T02:06:34;446.30;;;427.88;;
17197;SDS011;8715;51.010;6.812;2022-09-09T02:09:02;436.52;;;419.25;;
17197;SDS011;8715;51.010;6.812;2022-09-09T02:11:30;459.27;;;441.52;;
17197;SDS011;8715;51.010;6.812;2022-09-09T02:14:06;457.02;;;438.98;;
17197;SDS011;8715;51.010;6.812;2022-09-09T02:19:46;473.08;;;454.83;;
17197;SDS011;8715;51.010;6.812;2022-09-09T02:22:15;439.08;;;421.88;;
17197;SDS011;8715;51.010;6.812;2022-09-09T02:24:42;439.92;;;422.80;;
17197;SDS011;8715;51.010;6.812;2022-09-09T02:27:11;457.05;;;438.90;;
17197;SDS011;8715;51.010;6.812;2022-09-09T02:29:40;453.42;;;435.80;;
17197;SDS011;8715;51.010;6.812;2022-09-09T02:32:14;450.85;;;433.88;;
17197;SDS011;8715;51.010;6.812;2022-09-09T02:34:43;445.20;;;427.67;;
17197;SDS011;8715;51.010;6.812;2022-09-09T02:37:10;449.30;;;431.95;;
17197;SDS011;8715;51.010;6.812;2022-09-09T02:39:37;453.60;;;435.40;;
17197;SDS011;8715;51.010;6.812;2022-09-09T02:42:03;459.58;;;441.95;;
17197;SDS011;8715;51.010;6.812;2022-09-09T02:44:29;527.03;;;506.67;;
17197;SDS011;8715;51.010;6.812;2022-09-09T02:52:32;452.77;;;434.85;;
17197;SDS011;8715;51.010;6.812;2022-09-09T02:54:59;453.75;;;436.02;;
17197;SDS011;8715;51.010;6.812;2022-09-09T02:57:30;453.75;;;435.98;;
17197;SDS011;8715;51.010;6.812;2022-09-09T02:59:57;451.13;;;433.15;;
17197;SDS011;8715;51.010;6.812;2022-09-09T03:02:23;455.85;;;437.88;;
17197;SDS011;8715;51.010;6.812;2022-09-09T03:04:50;464.73;;;446.10;;
17197;SDS011;8715;51.010;6.812;2022-09-09T03:07:17;445.65;;;428.15;;
17197;SDS011;8715;51.010;6.812;2022-09-09T03:09:43;465.80;;;446.58;;
17197;SDS011;8715;51.010;6.812;2022-09-09T03:12:08;429.45;;;412.52;;
17197;SDS011;8715;51.010;6.812;2022-09-09T03:14:35;449.48;;;431.52;;
17197;SDS011;8715;51.010;6.812;2022-09-09T03:17:00;464.70;;;446.53;;
17197;SDS011;8715;51.010;6.812;2022-09-09T03:19:27;435.20;;;417.58;;
17197;SDS011;8715;51.010;6.812;2022-09-09T03:21:52;453.60;;;434.75;;
17197;SDS011;8715;51.010;6.812;2022-09-09T03:24:18;446.30;;;428.08;;
17197;SDS011;8715;51.010;6.812;2022-09-09T03:26:44;500.08;;;480.60;;
17197;SDS011;8715;51.010;6.812;2022-09-09T03:29:10;465.77;;;447.35;;
17197;SDS011;8715;51.010;6.812;2022-09-09T03:31:37;475.00;;;456.35;;
17197;SDS011;8715;51.010;6.812;2022-09-09T03:34:03;452.45;;;434.30;;
17197;SDS011;8715;51.010;6.812;2022-09-09T03:36:28;453.00;;;435.02;;
17197;SDS011;8715;51.010;6.812;2022-09-09T03:38:54;519.13;;;498.85;;
17197;SDS011;8715;51.010;6.812;2022-09-09T03:41:20;455.73;;;437.33;;
17197;SDS011;8715;51.010;6.812;2022-09-09T03:43:48;474.35;;;456.23;;
17197;SDS011;8715;51.010;6.812;2022-09-09T03:46:18;452.55;;;434.65;;
17197;SDS011;8715;51.010;6.812;2022-09-09T03:48:46;456.90;;;439.05;;
17197;SDS011;8715;51.010;6.812;2022-09-09T03:51:12;451.73;;;434.07;;
17197;SDS011;8715;51.010;6.812;2022-09-09T03:53:38;450.95;;;434.00;;
17197;SDS011;8715;51.010;6.812;2022-09-09T03:56:04;450.05;;;432.30;;
17197;SDS011;8715;51.010;6.812;2022-09-09T03:58:31;457.85;;;439.73;;
17197;SDS011;8715;51.010;6.812;2022-09-09T04:00:58;465.05;;;445.92;;
17197;SDS011;8715;51.010;6.812;2022-09-09T04:03:25;458.17;;;440.02;;
17197;SDS011;8715;51.010;6.812;2022-09-09T04:05:51;460.92;;;442.67;;
17197;SDS011;8715;51.010;6.812;2022-09-09T04:08:18;458.52;;;440.20;;
17197;SDS011;8715;51.010;6.812;2022-09-09T04:10:47;453.35;;;435.45;;
17197;SDS011;8715;51.010;6.812;2022-09-09T04:13:13;497.63;;;477.75;;
17197;SDS011;8715;51.010;6.812;2022-09-09T04:15:41;457.30;;;438.60;;
17197;SDS011;8715;51.010;6.812;2022-09-09T04:18:07;451.85;;;434.13;;
17197;SDS011;8715;51.010;6.812;2022-09-09T04:20:32;458.48;;;439.83;;
17197;SDS011;8715;51.010;6.812;2022-09-09T04:22:58;462.17;;;443.10;;
17197;SDS011;8715;51.010;6.812;2022-09-09T04:25:23;459.70;;;441.48;;
17197;SDS011;8715;51.010;6.812;2022-09-09T04:27:52;467.53;;;448.90;;
17197;SDS011;8715;51.010;6.812;2022-09-09T04:30:19;457.25;;;439.15;;
17197;SDS011;8715;51.010;6.812;2022-09-09T04:32:45;466.70;;;448.00;;
17197;SDS011;8715;51.010;6.812;2022-09-09T04:35:10;469.87;;;451.23;;
17197;SDS011;8715;51.010;6.812;2022-09-09T04:37:35;464.92;;;446.25;;
17197;SDS011;8715;51.010;6.812;2022-09-09T04:40:01;473.33;;;454.55;;
17197;SDS011;8715;51.010;6.812;2022-09-09T04:42:27;455.58;;;437.77;;
17197;SDS011;8715;51.010;6.812;2022-09-09T04:44:52;470.47;;;451.93;;
17197;SDS011;8715;51.010;6.812;2022-09-09T04:47:19;467.42;;;448.85;;
17197;SDS011;8715;51.010;6.812;2022-09-09T04:49:44;450.67;;;432.95;;
17197;SDS011;8715;51.010;6.812;2022-09-09T04:52:09;452.33;;;433.53;;
17197;SDS011;8715;51.010;6.812;2022-09-09T04:54:35;474.25;;;454.80;;
17197;SDS011;8715;51.010;6.812;2022-09-09T04:57:00;468.87;;;449.90;;
17197;SDS011;8715;51.010;6.812;2022-09-09T04:59:25;478.00;;;458.90;;
17197;SDS011;8715;51.010;6.812;2022-09-09T05:01:51;462.57;;;444.27;;
17197;SDS011;8715;51.010;6.812;2022-09-09T05:04:16;463.90;;;445.93;;
17197;SDS011;8715;51.010;6.812;2022-09-09T05:06:41;462.88;;;444.38;;
17197;SDS011;8715;51.010;6.812;2022-09-09T05:09:07;443.70;;;426.08;;
17197;SDS011;8715;51.010;6.812;2022-09-09T05:11:33;455.08;;;436.80;;
17197;SDS011;8715;51.010;6.812;2022-09-09T05:14:01;463.02;;;444.35;;
17197;SDS011;8715;51.010;6.812;2022-09-09T05:16:27;460.42;;;441.52;;
17197;SDS011;8715;51.010;6.812;2022-09-09T05:18:53;456.58;;;437.83;;
17197;SDS011;8715;51.010;6.812;2022-09-09T05:21:19;473.70;;;454.67;;
17197;SDS011;8715;51.010;6.812;2022-09-09T05:23:45;475.38;;;457.25;;
17197;SDS011;8715;51.010;6.812;2022-09-09T05:26:15;447.27;;;429.58;;
17197;SDS011;8715;51.010;6.812;2022-09-09T05:28:41;443.52;;;425.58;;
17197;SDS011;8715;51.010;6.812;2022-09-09T05:31:08;469.67;;;450.48;;
17197;SDS011;8715;51.010;6.812;2022-09-09T05:33:34;448.40;;;430.45;;
17197;SDS011;8715;51.010;6.812;2022-09-09T05:36:05;460.00;;;441.63;;
17197;SDS011;8715;51.010;6.812;2022-09-09T05:38:32;460.23;;;440.73;;
17197;SDS011;8715;51.010;6.812;2022-09-09T05:40:59;465.27;;;445.95;;
17197;SDS011;8715;51.010;6.812;2022-09-09T05:43:25;481.98;;;462.98;;
17197;SDS011;8715;51.010;6.812;2022-09-09T05:46:00;478.05;;;459.35;;
17197;SDS011;8715;51.010;6.812;2022-09-09T05:48:29;472.75;;;453.48;;
17197;SDS011;8715;51.010;6.812;2022-09-09T05:50:58;479.55;;;460.38;;
17197;SDS011;8715;51.010;6.812;2022-09-09T05:53:24;475.98;;;456.83;;
17197;SDS011;8715;51.010;6.812;2022-09-09T05:55:57;475.33;;;456.58;;
17197;SDS011;8715;51.010;6.812;2022-09-09T05:58:24;484.33;;;464.63;;
17197;SDS011;8715;51.010;6.812;2022-09-09T06:00:50;482.20;;;463.15;;
17197;SDS011;8715;51.010;6.812;2022-09-09T06:03:15;489.97;;;469.80;;
17197;SDS011;8715;51.010;6.812;2022-09-09T06:05:41;468.58;;;450.33;;
17197;SDS011;8715;51.010;6.812;2022-09-09T06:08:07;496.10;;;476.85;;
17197;SDS011;8715;51.010;6.812;2022-09-09T06:10:32;483.38;;;464.13;;
17197;SDS011;8715;51.010;6.812;2022-09-09T06:12:59;496.00;;;476.75;;
17197;SDS011;8715;51.010;6.812;2022-09-09T06:15:24;490.23;;;470.98;;
17197;SDS011;8715;51.010;6.812;2022-09-09T06:17:54;493.77;;;474.20;;
17197;SDS011;8715;51.010;6.812;2022-09-09T06:20:20;514.40;;;494.52;;
17197;SDS011;8715;51.010;6.812;2022-09-09T06:22:46;482.05;;;463.45;;
17197;SDS011;8715;51.010;6.812;2022-09-09T06:25:13;498.05;;;478.90;;
17197;SDS011;8715;51.010;6.812;2022-09-09T06:27:39;504.17;;;484.27;;
17197;SDS011;8715;51.010;6.812;2022-09-09T06:30:05;496.45;;;477.13;;
17197;SDS011;8715;51.010;6.812;2022-09-09T06:32:32;504.13;;;481.88;;
17197;SDS011;8715;51.010;6.812;2022-09-09T06:35:00;497.27;;;477.83;;
17197;SDS011;8715;51.010;6.812;2022-09-09T06:37:26;493.45;;;474.15;;
17197;SDS011;8715;51.010;6.812;2022-09-09T06:39:51;505.80;;;485.58;;
17197;SDS011;8715;51.010;6.812;2022-09-09T06:42:17;523.40;;;492.38;;
17197;SDS011;8715;51.010;6.812;2022-09-09T06:44:42;497.45;;;477.80;;
17197;SDS011;8715;51.010;6.812;2022-09-09T06:47:08;512.27;;;492.17;;
17197;SDS011;8715;51.010;6.812;2022-09-09T06:49:33;511.27;;;491.37;;
17197;SDS011;8715;51.010;6.812;2022-09-09T06:51:59;512.50;;;492.38;;
17197;SDS011;8715;51.010;6.812;2022-09-09T06:54:25;516.97;;;496.48;;
17197;SDS011;8715;51.010;6.812;2022-09-09T06:56:50;529.88;;;509.20;;
17197;SDS011;8715;51.010;6.812;2022-09-09T06:59:15;521.63;;;501.37;;
17197;SDS011;8715;51.010;6.812;2022-09-09T07:01:42;543.63;;;522.57;;
17197;SDS011;8715;51.010;6.812;2022-09-09T07:04:11;535.42;;;514.75;;
17197;SDS011;8715;51.010;6.812;2022-09-09T07:06:39;550.30;;;529.05;;
17197;SDS011;8715;51.010;6.812;2022-09-09T07:09:09;548.78;;;526.83;;
17197;SDS011;8715;51.010;6.812;2022-09-09T07:12:08;603.17;;;579.33;;
17197;SDS011;8715;51.010;6.812;2022-09-09T07:14:26;557.85;;;536.03;;
17197;SDS011;8715;51.010;6.812;2022-09-09T07:16:52;553.05;;;531.38;;
17197;SDS011;8715;51.010;6.812;2022-09-09T07:19:17;562.40;;;540.40;;
17197;SDS011;8715;51.010;6.812;2022-09-09T07:21:43;564.05;;;541.95;;
17197;SDS011;8715;51.010;6.812;2022-09-09T07:24:09;567.75;;;545.22;;
17197;SDS011;8715;51.010;6.812;2022-09-09T07:26:36;566.90;;;544.47;;
17197;SDS011;8715;51.010;6.812;2022-09-09T07:29:02;563.42;;;541.20;;
17197;SDS011;8715;51.010;6.812;2022-09-09T07:31:31;563.95;;;542.00;;
17197;SDS011;8715;51.010;6.812;2022-09-09T07:34:01;580.45;;;557.65;;
17197;SDS011;8715;51.010;6.812;2022-09-09T07:36:28;580.33;;;557.08;;
17197;SDS011;8715;51.010;6.812;2022-09-09T07:38:58;584.22;;;560.35;;
17197;SDS011;8715;51.010;6.812;2022-09-09T07:41:26;586.60;;;563.03;;
17197;SDS011;8715;51.010;6.812;2022-09-09T07:43:53;582.72;;;559.15;;
17197;SDS011;8715;51.010;6.812;2022-09-09T07:46:20;570.30;;;547.75;;
17197;SDS011;8715;51.010;6.812;2022-09-09T07:48:47;581.75;;;558.70;;
17197;SDS011;8715;51.010;6.812;2022-09-09T07:51:18;575.50;;;552.47;;
17197;SDS011;8715;51.010;6.812;2022-09-09T07:53:48;581.40;;;558.13;;
17197;SDS011;8715;51.010;6.812;2022-09-09T07:56:15;571.92;;;549.13;;
17197;SDS011;8715;51.010;6.812;2022-09-09T07:58:45;562.92;;;541.13;;
17197;SDS011;8715;51.010;6.812;2022-09-09T08:01:16;567.67;;;545.53;;
17197;SDS011;8715;51.010;6.812;2022-09-09T08:03:55;564.35;;;541.80;;
17197;SDS011;8715;51.010;6.812;2022-09-09T08:06:24;553.25;;;531.17;;
17197;SDS011;8715;51.010;6.812;2022-09-09T08:08:51;545.90;;;524.42;;
17197;SDS011;8715;51.010;6.812;2022-09-09T08:11:16;559.65;;;537.78;;
17197;SDS011;8715;51.010;6.812;2022-09-09T08:13:42;551.55;;;529.75;;
17197;SDS011;8715;51.010;6.812;2022-09-09T08:16:09;560.40;;;538.42;;
17197;SDS011;8715;51.010;6.812;2022-09-09T08:18:35;560.72;;;538.47;;
17197;SDS011;8715;51.010;6.812;2022-09-09T08:21:07;573.38;;;550.10;;
17197;SDS011;8715;51.010;6.812;2022-09-09T08:23:34;559.08;;;537.00;;
17197;SDS011;8715;51.010;6.812;2022-09-09T08:26:03;569.28;;;546.75;;
17197;SDS011;8715;51.010;6.812;2022-09-09T08:28:39;550.85;;;529.25;;
17197;SDS011;8715;51.010;6.812;2022-09-09T08:31:15;560.95;;;538.53;;
17197;SDS011;8715;51.010;6.812;2022-09-09T08:33:42;563.22;;;541.03;;
17197;SDS011;8715;51.010;6.812;2022-09-09T08:36:11;561.28;;;539.17;;
17197;SDS011;8715;51.010;6.812;2022-09-09T08:38:38;563.05;;;540.85;;
17197;SDS011;8715;51.010;6.812;2022-09-09T08:43:46;568.33;;;545.90;;
17197;SDS011;8715;51.010;6.812;2022-09-09T08:46:15;551.70;;;530.25;;
17197;SDS011;8715;51.010;6.812;2022-09-09T08:48:55;564.22;;;542.08;;
17197;SDS011;8715;51.010;6.812;2022-09-09T08:51:23;568.22;;;545.75;;
17197;SDS011;8715;51.010;6.812;2022-09-09T08:53:50;555.75;;;534.13;;
17197;SDS011;8715;51.010;6.812;2022-09-09T08:56:18;557.08;;;535.13;;
17197;SDS011;8715;51.010;6.812;2022-09-09T08:58:50;570.83;;;548.30;;
17197;SDS011;8715;51.010;6.812;2022-09-09T09:12:27;565.60;;;541.95;;
17197;SDS011;8715;51.010;6.812;2022-09-09T09:14:58;565.10;;;542.75;;
17197;SDS011;8715;51.010;6.812;2022-09-09T09:17:25;559.85;;;537.90;;
17197;SDS011;8715;51.010;6.812;2022-09-09T09:19:52;570.55;;;547.53;;
17197;SDS011;8715;51.010;6.812;2022-09-09T09:27:32;558.13;;;536.05;;
17197;SDS011;8715;51.010;6.812;2022-09-09T09:29:59;558.88;;;537.13;;
17197;SDS011;8715;51.010;6.812;2022-09-09T09:32:28;560.97;;;537.50;;
17197;SDS011;8715;51.010;6.812;2022-09-09T09:34:56;556.08;;;534.05;;
17197;SDS011;8715;51.010;6.812;2022-09-09T09:37:28;550.72;;;528.95;;
17197;SDS011;8715;51.010;6.812;2022-09-09T09:39:54;567.13;;;545.13;;
17197;SDS011;8715;51.010;6.812;2022-09-09T09:42:19;567.40;;;545.58;;
17197;SDS011;8715;51.010;6.812;2022-09-09T09:44:45;566.97;;;544.83;;
17197;SDS011;8715;51.010;6.812;2022-09-09T09:49:50;559.42;;;537.03;;
17197;SDS011;8715;51.010;6.812;2022-09-09T09:52:26;581.97;;;555.28;;
17197;SDS011;8715;51.010;6.812;2022-09-09T09:54:53;564.78;;;541.25;;
17197;SDS011;8715;51.010;6.812;2022-09-09T09:57:22;599.33;;;573.00;;
17197;SDS011;8715;51.010;6.812;2022-09-09T09:59:59;608.95;;;581.90;;
17197;SDS011;8715;51.010;6.812;2022-09-09T10:02:31;574.47;;;551.25;;
17197;SDS011;8715;51.010;6.812;2022-09-09T10:05:04;594.95;;;571.17;;
17197;SDS011;8715;51.010;6.812;2022-09-09T10:07:40;586.72;;;563.28;;
17197;SDS011;8715;51.010;6.812;2022-09-09T10:10:08;588.08;;;564.85;;
17197;SDS011;8715;51.010;6.812;2022-09-09T10:20:46;598.92;;;575.28;;
17197;SDS011;8715;51.010;6.812;2022-09-09T10:23:57;582.35;;;559.45;;
17197;SDS011;8715;51.010;6.812;2022-09-09T10:34:50;592.08;;;568.35;;
17197;SDS011;8715;51.010;6.812;2022-09-09T10:37:00;594.70;;;570.65;;
17197;SDS011;8715;51.010;6.812;2022-09-09T10:39:39;615.58;;;590.72;;
17197;SDS011;8715;51.010;6.812;2022-09-09T10:42:13;597.72;;;573.70;;
17197;SDS011;8715;51.010;6.812;2022-09-09T10:44:49;599.90;;;575.35;;
17197;SDS011;8715;51.010;6.812;2022-09-09T10:49:58;616.08;;;591.33;;
17197;SDS011;8715;51.010;6.812;2022-09-09T10:55:19;608.05;;;583.17;;
17197;SDS011;8715;51.010;6.812;2022-09-09T10:57:49;615.90;;;591.15;;
17197;SDS011;8715;51.010;6.812;2022-09-09T11:00:21;605.65;;;581.10;;
17197;SDS011;8715;51.010;6.812;2022-09-09T11:02:49;608.40;;;584.05;;
17197;SDS011;8715;51.010;6.812;2022-09-09T11:07:55;599.80;;;576.15;;
17197;SDS011;8715;51.010;6.812;2022-09-09T11:10:24;595.55;;;571.65;;
17197;SDS011;8715;51.010;6.812;2022-09-09T11:12:51;597.90;;;574.45;;
17197;SDS011;8715;51.010;6.812;2022-09-09T11:15:25;600.45;;;575.70;;
17197;SDS011;8715;51.010;6.812;2022-09-09T11:17:58;598.78;;;574.80;;
17197;SDS011;8715;51.010;6.812;2022-09-09T11:20:25;590.60;;;566.25;;
17197;SDS011;8715;51.010;6.812;2022-09-09T11:25:32;594.00;;;570.10;;
17197;SDS011;8715;51.010;6.812;2022-09-09T11:41:15;577.83;;;554.67;;
17197;SDS011;8715;51.010;6.812;2022-09-09T11:43:44;585.13;;;561.58;;
17197;SDS011;8715;51.010;6.812;2022-09-09T11:46:12;585.33;;;561.72;;
17197;SDS011;8715;51.010;6.812;2022-09-09T11:48:41;574.15;;;551.60;;
17197;SDS011;8715;51.010;6.812;2022-09-09T11:53:51;595.17;;;571.55;;
17197;SDS011;8715;51.010;6.812;2022-09-09T11:59:20;584.50;;;561.22;;
17197;SDS011;8715;51.010;6.812;2022-09-09T12:01:50;580.75;;;558.17;;
17197;SDS011;8715;51.010;6.812;2022-09-09T12:06:59;585.85;;;562.63;;
17197;SDS011;8715;51.010;6.812;2022-09-09T12:09:30;617.17;;;592.70;;
17197;SDS011;8715;51.010;6.812;2022-09-09T12:12:32;574.97;;;552.25;;
17197;SDS011;8715;51.010;6.812;2022-09-09T12:15:03;579.97;;;556.67;;
17197;SDS011;8715;51.010;6.812;2022-09-09T12:30:46;570.25;;;547.45;;
17197;SDS011;8715;51.010;6.812;2022-09-09T12:33:23;561.78;;;539.72;;
17197;SDS011;8715;51.010;6.812;2022-09-09T12:35:55;575.08;;;552.85;;
17197;SDS011;8715;51.010;6.812;2022-09-09T12:38:36;563.65;;;541.47;;
17197;SDS011;8715;51.010;6.812;2022-09-09T12:41:02;564.33;;;541.05;;
17197;SDS011;8715;51.010;6.812;2022-09-09T12:43:28;553.75;;;531.28;;
17197;SDS011;8715;51.010;6.812;2022-09-09T12:46:03;555.55;;;532.80;;
17197;SDS011;8715;51.010;6.812;2022-09-09T12:48:36;542.63;;;520.92;;
17197;SDS011;8715;51.010;6.812;2022-09-09T12:51:05;544.63;;;522.80;;
17197;SDS011;8715;51.010;6.812;2022-09-09T12:53:33;509.70;;;489.58;;
17197;SDS011;8715;51.010;6.812;2022-09-09T12:56:18;528.30;;;507.48;;
17197;SDS011;8715;51.010;6.812;2022-09-09T12:58:45;528.03;;;506.98;;
17197;SDS011;8715;51.010;6.812;2022-09-09T13:01:18;539.15;;;517.28;;
17197;SDS011;8715;51.010;6.812;2022-09-09T13:03:54;535.85;;;515.17;;
17197;SDS011;8715;51.010;6.812;2022-09-09T13:06:23;573.90;;;551.13;;
17197;SDS011;8715;51.010;6.812;2022-09-09T13:08:51;562.75;;;540.92;;
17197;SDS011;8715;51.010;6.812;2022-09-09T13:11:19;561.60;;;539.20;;
17197;SDS011;8715;51.010;6.812;2022-09-09T13:13:50;584.47;;;561.08;;
17197;SDS011;8715;51.010;6.812;2022-09-09T13:16:23;569.65;;;547.08;;
17197;SDS011;8715;51.010;6.812;2022-09-09T13:18:50;573.72;;;550.88;;
17197;SDS011;8715;51.010;6.812;2022-09-09T13:21:15;580.90;;;558.10;;
17197;SDS011;8715;51.010;6.812;2022-09-09T13:23:41;574.33;;;551.75;;
17197;SDS011;8715;51.010;6.812;2022-09-09T13:26:25;566.47;;;543.90;;
17197;SDS011;8715;51.010;6.812;2022-09-09T13:28:52;582.95;;;560.50;;
17197;SDS011;8715;51.010;6.812;2022-09-09T13:31:27;583.92;;;560.85;;
17197;SDS011;8715;51.010;6.812;2022-09-09T13:33:54;582.50;;;559.75;;
17197;SDS011;8715;51.010;6.812;2022-09-09T13:36:30;587.40;;;563.90;;
17197;SDS011;8715;51.010;6.812;2022-09-09T13:38:57;606.42;;;582.42;;
17197;SDS011;8715;51.010;6.812;2022-09-09T13:46:35;571.35;;;549.13;;
17197;SDS011;8715;51.010;6.812;2022-09-09T13:51:43;584.65;;;561.30;;
17197;SDS011;8715;51.010;6.812;2022-09-09T13:54:10;578.85;;;555.58;;
17197;SDS011;8715;51.010;6.812;2022-09-09T13:56:37;580.25;;;557.30;;
17197;SDS011;8715;51.010;6.812;2022-09-09T13:59:04;563.67;;;541.15;;
17197;SDS011;8715;51.010;6.812;2022-09-09T14:01:30;568.92;;;546.17;;
17197;SDS011;8715;51.010;6.812;2022-09-09T14:03:56;595.20;;;571.95;;
17197;SDS011;8715;51.010;6.812;2022-09-09T14:06:21;571.40;;;549.15;;
17197;SDS011;8715;51.010;6.812;2022-09-09T14:08:47;567.15;;;544.65;;
17197;SDS011;8715;51.010;6.812;2022-09-09T14:11:14;570.05;;;547.05;;
17197;SDS011;8715;51.010;6.812;2022-09-09T14:13:39;576.13;;;553.20;;
17197;SDS011;8715;51.010;6.812;2022-09-09T14:16:05;558.20;;;536.03;;
17197;SDS011;8715;51.010;6.812;2022-09-09T14:18:30;557.78;;;535.70;;
17197;SDS011;8715;51.010;6.812;2022-09-09T14:20:56;572.97;;;549.63;;
17197;SDS011;8715;51.010;6.812;2022-09-09T14:23:23;579.17;;;556.30;;
17197;SDS011;8715;51.010;6.812;2022-09-09T14:25:49;564.17;;;542.67;;
17197;SDS011;8715;51.010;6.812;2022-09-09T14:28:14;563.80;;;541.55;;
17197;SDS011;8715;51.010;6.812;2022-09-09T14:30:40;557.78;;;535.15;;
17197;SDS011;8715;51.010;6.812;2022-09-09T14:33:07;564.75;;;541.67;;
17197;SDS011;8715;51.010;6.812;2022-09-09T14:35:33;549.28;;;527.72;;
17197;SDS011;8715;51.010;6.812;2022-09-09T14:37:59;546.00;;;524.25;;
17197;SDS011;8715;51.010;6.812;2022-09-09T14:40:25;547.35;;;526.00;;
17197;SDS011;8715;51.010;6.812;2022-09-09T14:42:52;597.80;;;573.97;;
17197;SDS011;8715;51.010;6.812;2022-09-09T14:45:17;553.38;;;531.75;;
17197;SDS011;8715;51.010;6.812;2022-09-09T14:47:43;527.70;;;507.03;;
17197;SDS011;8715;51.010;6.812;2022-09-09T14:50:08;539.00;;;517.60;;
17197;SDS011;8715;51.010;6.812;2022-09-09T14:52:33;542.60;;;521.53;;
17197;SDS011;8715;51.010;6.812;2022-09-09T14:54:59;542.90;;;521.70;;
17197;SDS011;8715;51.010;6.812;2022-09-09T14:57:24;535.15;;;514.10;;
17197;SDS011;8715;51.010;6.812;2022-09-09T14:59:50;531.53;;;510.70;;
17197;SDS011;8715;51.010;6.812;2022-09-09T15:02:15;547.20;;;525.65;;
17197;SDS011;8715;51.010;6.812;2022-09-09T15:04:40;560.38;;;538.67;;
17197;SDS011;8715;51.010;6.812;2022-09-09T15:07:06;552.55;;;530.80;;
17197;SDS011;8715;51.010;6.812;2022-09-09T15:09:31;584.30;;;560.70;;
17197;SDS011;8715;51.010;6.812;2022-09-09T15:11:56;554.83;;;533.23;;
17197;SDS011;8715;51.010;6.812;2022-09-09T15:14:22;601.70;;;578.50;;
17197;SDS011;8715;51.010;6.812;2022-09-09T15:16:47;549.63;;;528.33;;
17197;SDS011;8715;51.010;6.812;2022-09-09T15:19:12;546.40;;;523.37;;
17197;SDS011;8715;51.010;6.812;2022-09-09T15:21:38;541.63;;;520.90;;
17197;SDS011;8715;51.010;6.812;2022-09-09T15:24:03;541.23;;;520.07;;
17197;SDS011;8715;51.010;6.812;2022-09-09T15:26:29;550.28;;;528.97;;
17197;SDS011;8715;51.010;6.812;2022-09-09T15:28:55;547.70;;;526.25;;
17197;SDS011;8715;51.010;6.812;2022-09-09T15:31:24;557.78;;;535.95;;
17197;SDS011;8715;51.010;6.812;2022-09-09T15:33:57;549.67;;;527.55;;
17197;SDS011;8715;51.010;6.812;2022-09-09T15:36:27;539.65;;;518.53;;
17197;SDS011;8715;51.010;6.812;2022-09-09T15:38:57;546.53;;;525.55;;
17197;SDS011;8715;51.010;6.812;2022-09-09T15:41:23;532.55;;;511.50;;
17197;SDS011;8715;51.010;6.812;2022-09-09T15:43:51;587.00;;;564.20;;
17197;SDS011;8715;51.010;6.812;2022-09-09T15:48:52;535.47;;;514.45;;
17197;SDS011;8715;51.010;6.812;2022-09-09T15:51:19;553.47;;;531.58;;
17197;SDS011;8715;51.010;6.812;2022-09-09T15:53:45;561.28;;;539.05;;
17197;SDS011;8715;51.010;6.812;2022-09-09T15:56:10;575.70;;;552.83;;
17197;SDS011;8715;51.010;6.812;2022-09-09T15:58:36;544.80;;;523.33;;
17197;SDS011;8715;51.010;6.812;2022-09-09T16:01:02;551.85;;;530.42;;
17197;SDS011;8715;51.010;6.812;2022-09-09T16:03:35;559.45;;;538.13;;
17197;SDS011;8715;51.010;6.812;2022-09-09T16:06:05;553.17;;;531.50;;
17197;SDS011;8715;51.010;6.812;2022-09-09T16:08:40;550.28;;;529.33;;
17197;SDS011;8715;51.010;6.812;2022-09-09T16:11:12;609.78;;;585.75;;
17197;SDS011;8715;51.010;6.812;2022-09-09T16:13:40;602.13;;;578.45;;
17197;SDS011;8715;51.010;6.812;2022-09-09T16:16:07;537.05;;;515.42;;
17197;SDS011;8715;51.010;6.812;2022-09-09T16:18:37;541.78;;;521.00;;
17197;SDS011;8715;51.010;6.812;2022-09-09T16:21:04;545.03;;;523.65;;
17197;SDS011;8715;51.010;6.812;2022-09-09T16:23:34;531.63;;;511.33;;
17197;SDS011;8715;51.010;6.812;2022-09-09T16:26:00;534.00;;;513.17;;
17197;SDS011;8715;51.010;6.812;2022-09-09T16:28:26;541.35;;;520.30;;
17197;SDS011;8715;51.010;6.812;2022-09-09T16:30:51;583.80;;;560.97;;
17197;SDS011;8715;51.010;6.812;2022-09-09T16:33:17;535.45;;;513.17;;
17197;SDS011;8715;51.010;6.812;2022-09-09T16:35:42;539.00;;;518.30;;
17197;SDS011;8715;51.010;6.812;2022-09-09T16:38:09;526.58;;;505.60;;
17197;SDS011;8715;51.010;6.812;2022-09-09T16:40:35;544.88;;;523.22;;